Time;durP1;ratioP1;P1;durP2;ratioP2;P2;SDS_P1;SDS_P2;PMS_P1;PMS_P2;Temp;Humidity;BMP_temperature;BMP_pressure;BME280_temperature;BME280_humidity;BME280_pressure;Samples;Min_cycle;Max_cycle;Signal;HPM_P1;HPM_P2
2023/07/29 00:00:27;;;;;;;0.40;0.40;;;;;;;16.50;100.00;96505.59;29394;282;64009;-54
2023/07/29 00:01:00;;;;;;;0.40;0.40;;;;;;;16.51;100.00;96506.41;29395;219;63016;-59
2023/07/29 00:01:32;;;;;;;0.40;0.40;;;;;;;16.53;100.00;96504.91;29395;257;63004;-54
2023/07/29 00:02:04;;;;;;;0.40;0.40;;;;;;;16.52;100.00;96503.31;29395;237;63009;-54
2023/07/29 00:02:35;;;;;;;0.30;0.30;;;;;;;16.51;100.00;96500.91;29395;247;63004;-53
2023/07/29 00:03:09;;;;;;;0.40;0.40;;;;;;;16.52;100.00;96497.84;29395;260;63009;-54
2023/07/29 00:03:40;;;;;;;0.40;0.40;;;;;;;16.54;100.00;96501.03;29395;245;63004;-55
2023/07/29 00:04:12;;;;;;;0.40;0.40;;;;;;;16.55;100.00;96496.38;29395;213;63008;-54
2023/07/29 00:04:43;;;;;;;0.40;0.40;;;;;;;16.55;100.00;96491.69;29395;336;63005;-54
2023/07/29 00:05:14;;;;;;;0.40;0.40;;;;;;;16.53;100.00;96485.75;29395;250;63009;-54
2023/07/29 00:05:48;;;;;;;0.30;0.30;;;;;;;16.51;100.00;96495.44;29394;212;64009;-54
2023/07/29 00:06:19;;;;;;;0.40;0.40;;;;;;;16.48;100.00;96494.19;29395;284;63009;-55
2023/07/29 00:06:50;;;;;;;0.40;0.40;;;;;;;16.46;100.00;96490.19;29395;217;63005;-54
2023/07/29 00:07:22;;;;;;;0.40;0.40;;;;;;;16.46;100.00;96482.78;29395;238;63009;-55
2023/07/29 00:07:53;;;;;;;0.40;0.40;;;;;;;16.45;100.00;96486.66;29395;216;63005;-53
2023/07/29 00:08:25;;;;;;;0.40;0.40;;;;;;;16.43;100.00;96486.97;29395;214;63009;-53
2023/07/29 00:08:56;;;;;;;0.30;0.30;;;;;;;16.42;100.00;96487.31;29395;219;63004;-53
2023/07/29 00:09:27;;;;;;;0.40;0.40;;;;;;;16.39;100.00;96485.25;29395;296;63027;-53
2023/07/29 00:09:58;;;;;;;0.40;0.40;;;;;;;16.38;100.00;96480.94;29395;197;63004;-54
2023/07/29 00:10:32;;;;;;;0.40;0.40;;;;;;;16.38;100.00;96480.94;29395;352;63017;-53
2023/07/29 00:11:04;;;;;;;0.40;0.40;;;;;;;16.37;100.00;96482.88;29394;206;64009;-54
2023/07/29 00:11:35;;;;;;;0.30;0.30;;;;;;;16.35;100.00;96476.94;29395;227;63008;-55
2023/07/29 00:12:07;;;;;;;0.40;0.40;;;;;;;16.35;100.00;96478.88;29395;245;63005;-54
2023/07/29 00:12:39;;;;;;;0.40;0.40;;;;;;;16.33;100.00;96479.19;29395;360;63009;-54
2023/07/29 00:13:10;;;;;;;0.40;0.40;;;;;;;16.32;100.00;96479.53;29395;206;63005;-55
2023/07/29 00:13:41;;;;;;;0.40;0.40;;;;;;;16.32;100.00;96479.53;29395;265;63009;-54
2023/07/29 00:14:12;;;;;;;0.40;0.40;;;;;;;16.31;100.00;96486.16;29395;197;63005;-53
2023/07/29 00:14:44;;;;;;;0.40;0.40;;;;;;;16.30;100.00;96484.56;29395;359;63009;-53
2023/07/29 00:15:15;;;;;;;0.40;0.40;;;;;;;16.27;100.00;96490.72;29395;198;63005;-53
2023/07/29 00:15:46;;;;;;;0.40;0.40;;;;;;;16.24;100.00;96484.00;29395;270;63009;-53
2023/07/29 00:16:18;;;;;;;0.40;0.40;;;;;;;16.25;100.00;96491.06;29394;300;64009;-57
2023/07/29 00:16:49;;;;;;;0.40;0.40;;;;;;;16.23;100.00;96487.06;29395;218;63009;-53
2023/07/29 00:17:21;;;;;;;0.40;0.40;;;;;;;16.23;100.00;96478.84;29395;275;63004;-53
2023/07/29 00:17:53;;;;;;;0.40;0.40;;;;;;;16.22;100.00;96488.22;29395;204;63009;-53
2023/07/29 00:18:24;;;;;;;0.40;0.40;;;;;;;16.22;100.00;96482.72;29395;246;63013;-53
2023/07/29 00:18:55;;;;;;;0.40;0.40;;;;;;;16.21;100.00;96483.88;29395;244;63008;-58
2023/07/29 00:19:33;;;;;;;0.40;0.40;;;;;;;16.23;100.00;96484.34;29395;236;63004;-53
2023/07/29 00:20:06;;;;;;;0.40;0.40;;;;;;;16.22;100.00;96480.00;29395;227;63009;-54
2023/07/29 00:20:38;;;;;;;0.40;0.40;;;;;;;16.23;100.00;96484.34;29395;208;63005;-53
2023/07/29 00:21:14;;;;;;;0.40;0.40;;;;;;;16.25;100.00;96482.84;29395;221;63009;-54
2023/07/29 00:21:46;;;;;;;0.37;0.37;;;;;;;16.25;100.00;96482.06;29394;225;64009;-54
2023/07/29 00:22:17;;;;;;;0.30;0.30;;;;;;;16.26;100.00;96478.97;29395;256;63009;-54
2023/07/29 00:22:50;;;;;;;0.40;0.40;;;;;;;16.28;100.00;96481.38;29395;310;63000;-54
2023/07/29 00:23:22;;;;;;;0.40;0.40;;;;;;;16.29;100.00;96472.00;29395;229;63009;-59
2023/07/29 00:23:53;;;;;;;0.40;0.40;;;;;;;16.30;100.00;96474.41;29395;256;63004;-54
2023/07/29 00:24:24;;;;;;;0.40;0.40;;;;;;;16.31;100.00;96483.41;29395;196;63009;-54
2023/07/29 00:24:57;;;;;;;0.40;0.40;;;;;;;16.31;100.00;96480.69;29395;261;63004;-54
2023/07/29 00:25:28;;;;;;;0.40;0.40;;;;;;;16.32;100.00;96476.81;29395;285;63016;-54
2023/07/29 00:26:02;;;;;;;0.40;0.40;;;;;;;16.32;100.00;96476.81;29395;343;63004;-54
2023/07/29 00:26:34;;;;;;;0.40;0.40;;;;;;;16.32;100.00;96476.81;29395;264;63019;-54
2023/07/29 00:27:06;;;;;;;0.50;0.50;;;;;;;16.31;100.00;96486.16;29394;366;64013;-54
2023/07/29 00:27:43;;;;;;;0.40;0.40;;;;;;;16.29;100.00;96489.22;29395;223;63009;-54
2023/07/29 00:28:14;;;;;;;0.40;0.40;;;;;;;16.27;100.00;96490.72;29395;300;63005;-54
2023/07/29 00:28:45;;;;;;;0.40;0.40;;;;;;;16.24;100.00;96484.00;29395;231;63009;-59
2023/07/29 00:29:17;;;;;;;0.40;0.40;;;;;;;16.24;100.00;96477.72;29395;225;63005;-54
2023/07/29 00:29:48;;;;;;;0.40;0.40;;;;;;;16.24;100.00;96488.66;29395;216;63015;-54
2023/07/29 00:30:20;;;;;;;0.40;0.40;;;;;;;16.25;100.00;96488.34;29395;239;63005;-54
2023/07/29 00:30:51;;;;;;;0.40;0.40;;;;;;;16.24;100.00;96481.25;29395;223;63009;-54
2023/07/29 00:31:23;;;;;;;0.40;0.40;;;;;;;16.23;100.00;96484.34;29395;199;63004;-54
2023/07/29 00:31:56;;;;;;;0.40;0.40;;;;;;;16.23;100.00;96481.59;29395;245;63009;-60
2023/07/29 00:32:33;;;;;;;0.40;0.40;;;;;;;16.23;100.00;96485.13;29394;263;64009;-54
2023/07/29 00:33:04;;;;;;;0.40;0.40;;;;;;;16.23;100.00;96482.41;29395;291;63017;-54
2023/07/29 00:33:35;;;;;;;0.40;0.40;;;;;;;16.22;100.00;96483.53;29395;207;63004;-54
2023/07/29 00:34:07;;;;;;;0.40;0.40;;;;;;;16.22;100.00;96482.72;29395;261;63013;-53
2023/07/29 00:34:38;;;;;;;0.40;0.40;;;;;;;16.21;100.00;96481.13;29395;201;63004;-54
2023/07/29 00:35:09;;;;;;;0.40;0.40;;;;;;;16.21;100.00;96487.41;29395;237;63009;-54
2023/07/29 00:35:41;;;;;;;0.40;0.40;;;;;;;16.21;100.00;96481.13;29395;359;63005;-54
2023/07/29 00:36:12;;;;;;;0.40;0.40;;;;;;;16.19;100.00;96481.47;29395;268;63009;-56
2023/07/29 00:36:43;;;;;;;0.37;0.37;;;;;;;16.21;100.00;96481.13;29395;206;63005;-54
2023/07/29 00:37:14;;;;;;;0.40;0.40;;;;;;;16.22;100.00;96489.00;29395;312;63009;-53
2023/07/29 00:37:46;;;;;;;0.40;0.40;;;;;;;16.24;100.00;96483.19;29394;202;64009;-59
2023/07/29 00:38:17;;;;;;;0.50;0.50;;;;;;;16.25;100.00;96479.31;29395;273;63009;-54
2023/07/29 00:38:48;;;;;;;0.40;0.40;;;;;;;16.25;100.00;96482.06;29395;312;63008;-54
2023/07/29 00:39:20;;;;;;;0.40;0.40;;;;;;;16.25;100.00;96476.59;29395;223;63009;-54
2023/07/29 00:39:51;;;;;;;0.40;0.40;;;;;;;16.26;100.00;96483.66;29395;235;63010;-54
2023/07/29 00:40:23;;;;;;;0.40;0.40;;;;;;;16.25;100.00;96471.13;29395;271;63009;-54
2023/07/29 00:40:58;;;;;;;0.40;0.40;;;;;;;16.27;100.00;96477.03;29395;246;63004;-54
2023/07/29 00:41:33;;;;;;;0.40;0.40;;;;;;;16.26;100.00;96478.19;29394;236;64013;-54
2023/07/29 00:42:05;;;;;;;0.40;0.40;;;;;;;16.25;100.00;96477.38;29395;227;63004;-60
2023/07/29 00:42:36;;;;;;;0.40;0.40;;;;;;;16.24;100.00;96477.72;29395;230;63009;-54
2023/07/29 00:43:08;;;;;;;0.30;0.30;;;;;;;16.24;100.00;96475.78;29395;233;63005;-54
2023/07/29 00:43:39;;;;;;;0.40;0.40;;;;;;;16.23;100.00;96471.44;29395;208;63009;-54
2023/07/29 00:44:11;;;;;;;0.40;0.40;;;;;;;16.24;100.00;96472.25;29395;338;63007;-54
2023/07/29 00:44:42;;;;;;;0.40;0.40;;;;;;;16.24;100.00;96478.53;29395;224;63009;-53
2023/07/29 00:45:14;;;;;;;0.40;0.40;;;;;;;16.24;100.00;96475.78;29395;199;63005;-54
2023/07/29 00:45:46;;;;;;;0.40;0.40;;;;;;;16.24;100.00;96470.31;29395;254;63010;-54
2023/07/29 00:46:19;;;;;;;0.40;0.40;;;;;;;16.24;100.00;96474.97;29395;199;63004;-54
2023/07/29 00:46:53;;;;;;;0.40;0.40;;;;;;;16.24;100.00;96474.97;29394;256;64007;-54
2023/07/29 00:47:25;;;;;;;0.40;0.40;;;;;;;16.23;100.00;96476.12;29395;315;63004;-54
2023/07/29 00:47:57;;;;;;;0.40;0.40;;;;;;;16.22;100.00;96471.78;29395;305;63009;-54
2023/07/29 00:48:28;;;;;;;0.40;0.40;;;;;;;16.23;100.00;96473.38;29395;236;63010;-54
2023/07/29 00:49:01;;;;;;;0.40;0.40;;;;;;;16.22;100.00;96478.06;29395;319;63009;-54
2023/07/29 00:49:32;;;;;;;0.40;0.40;;;;;;;16.22;100.00;96471.78;29395;203;63005;-53
2023/07/29 00:50:05;;;;;;;0.40;0.40;;;;;;;16.21;100.00;96470.19;29395;198;63009;-59
2023/07/29 00:50:37;;;;;;;0.40;0.40;;;;;;;16.20;100.00;96457.63;29395;197;63005;-58
2023/07/29 00:51:08;;;;;;;0.40;0.40;;;;;;;16.21;100.00;96471.00;29395;267;63009;-57
2023/07/29 00:51:39;;;;;;;0.40;0.40;;;;;;;16.21;100.00;96470.19;29395;230;63005;-54
2023/07/29 00:52:12;;;;;;;0.40;0.40;;;;;;;16.21;100.00;96473.72;29394;279;64013;-54
2023/07/29 00:52:44;;;;;;;0.32;0.32;;;;;;;16.22;100.00;96469.03;29395;283;63005;-54
2023/07/29 00:53:15;;;;;;;0.40;0.40;;;;;;;16.21;100.00;96479.19;29395;238;63009;-55
2023/07/29 00:53:46;;;;;;;0.40;0.40;;;;;;;16.20;100.00;96480.34;29395;299;63004;-57
2023/07/29 00:54:18;;;;;;;0.40;0.40;;;;;;;16.19;100.00;96475.19;29395;291;63009;-54
2023/07/29 00:54:49;;;;;;;0.40;0.40;;;;;;;16.18;100.00;96476.34;29395;330;63004;-54
2023/07/29 00:55:21;;;;;;;0.40;0.40;;;;;;;16.19;100.00;96483.41;29395;241;63009;-54
2023/07/29 00:55:52;;;;;;;0.43;0.43;;;;;;;16.18;100.00;96476.34;29395;199;63004;-54
2023/07/29 00:56:24;;;;;;;0.40;0.40;;;;;;;16.18;100.00;96473.59;29395;223;63008;-54
2023/07/29 00:56:56;;;;;;;0.40;0.40;;;;;;;16.17;100.00;96472.81;29395;209;63005;-54
2023/07/29 00:57:31;;;;;;;0.40;0.40;;;;;;;16.19;100.00;96477.94;29394;253;64014;-53
2023/07/29 00:58:04;;;;;;;0.40;0.40;;;;;;;16.20;100.00;96474.06;29395;267;63005;-53
2023/07/29 00:58:38;;;;;;;0.40;0.40;;;;;;;16.19;100.00;96478.72;29395;224;63009;-57
2023/07/29 00:59:10;;;;;;;0.40;0.40;;;;;;;16.19;100.00;96483.41;29395;213;63008;-53
2023/07/29 00:59:41;;;;;;;0.40;0.40;;;;;;;16.17;100.00;96475.53;29395;224;63009;-53
2023/07/29 01:00:13;;;;;;;0.50;0.50;;;;;;;16.18;100.00;96484.53;29395;198;63010;-53
2023/07/29 01:00:45;;;;;;;0.40;0.40;;;;;;;16.16;100.00;96479.41;29395;276;63009;-54
2023/07/29 01:01:16;;;;;;;0.40;0.40;;;;;;;16.16;100.00;96478.59;29395;197;63004;-53
2023/07/29 01:01:48;;;;;;;0.40;0.40;;;;;;;16.16;100.00;96484.09;29395;283;63009;-54
2023/07/29 01:02:20;;;;;;;0.40;0.40;;;;;;;16.14;100.00;96480.88;29395;221;63004;-54
2023/07/29 01:02:54;;;;;;;0.32;0.32;;;;;;;16.14;100.00;96480.88;29394;205;64013;-53
2023/07/29 01:03:26;;;;;;;0.40;0.40;;;;;;;16.15;100.00;96477.00;29395;298;63009;-54
2023/07/29 01:03:58;;;;;;;0.40;0.40;;;;;;;16.15;100.00;96479.75;29395;229;63008;-54
2023/07/29 01:04:29;;;;;;;0.40;0.40;;;;;;;16.18;100.00;96476.34;29395;233;63005;-53
2023/07/29 01:05:01;;;;;;;0.40;0.40;;;;;;;16.18;100.00;96471.66;29395;272;63009;-53
2023/07/29 01:05:54;;;;;;;0.40;0.40;;;;;;;16.17;100.00;96464.59;29395;212;63005;-53
2023/07/29 01:06:53;;;;;;;0.40;0.40;;;;;;;16.17;100.00;96463.78;29395;250;63009;-53
2023/07/29 01:07:51;;;;;;;0.40;0.40;;;;;;;16.17;100.00;96464.59;29395;237;63005;-53
2023/07/29 01:08:34;;;;;;;0.40;0.40;;;;;;;16.20;100.00;96457.63;29394;229;64013;-54
2023/07/29 01:09:17;;;;;;;0.40;0.40;;;;;;;16.20;100.00;96452.16;29395;224;63004;-53
2023/07/29 01:10:16;;;;;;;0.40;0.40;;;;;;;16.21;100.00;96460.03;29395;236;63009;-53
2023/07/29 01:11:45;;;;;;;0.40;0.40;;;;;;;16.24;100.00;96447.59;29395;219;63004;-53
2023/07/29 01:12:33;;;;;;;0.40;0.40;;;;;;;16.22;100.00;96449.87;29395;290;63009;-53
2023/07/29 01:13:23;;;;;;;0.40;0.40;;;;;;;16.24;100.00;96453.09;29395;274;63005;-56
2023/07/29 01:14:04;;;;;;;0.40;0.40;;;;;;;16.25;100.00;96457.44;29394;202;64013;-54
2023/07/29 01:15:14;;;;;;;0.40;0.40;;;;;;;16.27;100.00;96455.16;29417;224;63005;-53
2023/07/29 01:16:02;;;;;;;0.50;0.50;;;;;;;16.28;100.00;96454.00;29395;232;63009;-54
2023/07/29 01:16:45;;;;;;;0.40;0.40;;;;;;;16.29;100.00;96452.84;29395;278;63004;-54
2023/07/29 01:17:29;;;;;;;0.40;0.40;;;;;;;16.29;100.00;96458.31;29395;249;63009;-54
2023/07/29 01:18:11;;;;;;;0.40;0.40;;;;;;;16.30;100.00;96454.44;29395;199;63004;-53
2023/07/29 01:18:46;;;;;;;0.40;0.40;;;;;;;16.30;100.00;96452.50;29395;300;63008;-54
2023/07/29 01:19:53;;;;;;;0.40;0.40;;;;;;;16.31;100.00;96464.25;29394;197;64009;-53
2023/07/29 01:20:26;;;;;;;0.40;0.40;;;;;;;16.29;100.00;96461.84;29395;243;63009;-54
2023/07/29 01:21:00;;;;;;;0.40;0.40;;;;;;;16.31;100.00;96464.25;29395;241;63005;-53
2023/07/29 01:21:33;;;;;;;0.40;0.40;;;;;;;16.31;100.00;96458.78;29395;242;63009;-53
2023/07/29 01:22:08;;;;;;;0.50;0.50;;;;;;;16.30;100.00;96462.66;29395;198;63011;-54
2023/07/29 01:22:41;;;;;;;0.40;0.40;;;;;;;16.29;100.00;96461.06;29395;211;63017;-53
2023/07/29 01:23:12;;;;;;;0.40;0.40;;;;;;;16.26;100.00;96461.75;29395;297;63005;-53
2023/07/29 01:23:44;;;;;;;0.40;0.40;;;;;;;16.24;100.00;96458.56;29395;274;63009;-54
2023/07/29 01:24:22;;;;;;;0.40;0.40;;;;;;;16.25;100.00;96457.44;29395;236;63004;-53
2023/07/29 01:24:53;;;;;;;0.40;0.40;;;;;;;16.25;100.00;96455.47;29394;234;64013;-54
2023/07/29 01:25:25;;;;;;;0.40;0.40;;;;;;;16.26;100.00;96459.03;29395;215;63004;-53
2023/07/29 01:25:56;;;;;;;0.40;0.40;;;;;;;16.25;100.00;96455.47;29395;313;63008;-53
2023/07/29 01:26:29;;;;;;;0.40;0.40;;;;;;;16.25;100.00;96454.69;29395;199;63004;-53
2023/07/29 01:27:01;;;;;;;0.40;0.40;;;;;;;16.24;100.00;96455.81;29395;347;63025;-52
2023/07/29 01:27:33;;;;;;;0.40;0.40;;;;;;;16.22;100.00;96452.62;29395;316;63005;-53
2023/07/29 01:28:04;;;;;;;0.40;0.40;;;;;;;16.23;100.00;96462.44;29395;290;63009;-54
2023/07/29 01:28:36;;;;;;;0.40;0.40;;;;;;;16.23;100.00;96449.56;29395;208;63005;-53
2023/07/29 01:29:07;;;;;;;0.40;0.40;;;;;;;16.24;100.00;96453.09;29395;214;63009;-56
2023/07/29 01:29:39;;;;;;;0.40;0.40;;;;;;;16.23;100.00;96456.97;29395;342;63005;-54
2023/07/29 01:30:11;;;;;;;0.40;0.40;;;;;;;16.22;100.00;96450.69;29394;215;64013;-53
2023/07/29 01:30:44;;;;;;;0.40;0.40;;;;;;;16.25;100.00;96454.69;29395;202;63005;-53
2023/07/29 01:31:30;;;;;;;0.40;0.40;;;;;;;16.25;100.00;96451.94;29395;326;63009;-54
2023/07/29 01:32:09;;;;;;;0.40;0.40;;;;;;;16.27;100.00;96452.41;29395;202;63004;-53
2023/07/29 01:33:04;;;;;;;0.40;0.40;;;;;;;16.28;100.00;96459.47;29395;226;63009;-54
2023/07/29 01:33:42;;;;;;;0.40;0.40;;;;;;;16.31;100.00;96453.31;29395;225;63004;-53
2023/07/29 01:34:25;;;;;;;0.40;0.40;;;;;;;16.31;100.00;96450.56;29395;219;63008;-53
2023/07/29 01:35:19;;;;;;;0.40;0.40;;;;;;;16.31;100.00;96453.31;29395;245;63005;-52
2023/07/29 01:36:14;;;;;;;0.40;0.40;;;;;;;16.29;100.00;96455.56;29394;224;64009;-52
2023/07/29 01:36:47;;;;;;;0.40;0.40;;;;;;;16.28;100.00;96454.00;29417;290;63009;-53
2023/07/29 01:37:25;;;;;;;0.40;0.40;;;;;;;16.25;100.00;96454.69;29395;296;63005;-53
2023/07/29 01:38:06;;;;;;;0.50;0.50;;;;;;;16.22;100.00;96450.69;29395;288;63009;-53
2023/07/29 01:38:38;;;;;;;;;;;;;;;16.22;100.00;96461.62;29996;983;6000;-53
2023/07/29 01:39:11;;;;;;;;;;;;;;;16.21;100.00;96460.03;30001;983;1885;-53
2023/07/29 01:39:45;;;;;;;0.40;0.40;;;;;;;16.20;100.00;96463.91;29399;220;64009;-53
2023/07/29 01:40:18;;;;;;;0.40;0.40;;;;;;;16.20;100.00;96466.66;29395;228;63009;-53
2023/07/29 01:40:51;;;;;;;0.50;0.50;;;;;;;16.21;100.00;96464.72;29395;208;63004;-53
2023/07/29 01:41:24;;;;;;;0.40;0.40;;;;;;;16.20;100.00;96468.59;29395;237;63008;-53
2023/07/29 01:41:56;;;;;;;0.40;0.40;;;;;;;16.20;100.00;96457.63;29395;241;63005;-54
2023/07/29 01:42:28;;;;;;;0.40;0.40;;;;;;;16.20;100.00;96465.84;29395;297;63013;-56
2023/07/29 01:43:00;;;;;;;0.40;0.40;;;;;;;16.20;100.00;96452.97;29395;225;63005;-53
2023/07/29 01:43:33;;;;;;;0.40;0.40;;;;;;;16.21;100.00;96454.56;29394;209;64013;-53
2023/07/29 01:44:06;;;;;;;0.40;0.40;;;;;;;16.22;100.00;96449.87;29395;220;63005;-56
2023/07/29 01:44:37;;;;;;;0.43;0.43;;;;;;;16.23;100.00;96456.97;29395;198;63009;-54
2023/07/29 01:45:09;;;;;;;0.40;0.40;;;;;;;16.22;100.00;96458.09;29395;276;63005;-53
2023/07/29 01:45:41;;;;;;;0.40;0.40;;;;;;;16.22;100.00;96452.62;29395;203;63009;-53
2023/07/29 01:46:14;;;;;;;0.40;0.40;;;;;;;16.22;100.00;96449.87;29395;254;63011;-53
2023/07/29 01:46:47;;;;;;;0.45;0.45;;;;;;;16.19;100.00;96451.38;29394;257;64013;-55
2023/07/29 01:47:18;;;;;;;0.50;0.50;;;;;;;16.20;100.00;96452.16;29395;212;63004;-53
2023/07/29 01:47:49;;;;;;;0.50;0.50;;;;;;;16.20;100.00;96452.16;29395;206;63015;-54
2023/07/29 01:48:21;;;;;;;0.40;0.40;;;;;;;16.20;100.00;96452.16;29395;240;63004;-53
2023/07/29 01:48:52;;;;;;;0.40;0.40;;;;;;;16.20;100.00;96458.44;29395;381;63008;-54
2023/07/29 01:49:24;;;;;;;0.40;0.40;;;;;;;16.20;100.00;96452.16;29394;267;64009;-55
2023/07/29 01:49:58;;;;;;;0.50;0.50;;;;;;;16.23;100.00;96454.22;29395;213;63009;-55
2023/07/29 01:50:31;;;;;;;0.40;0.40;;;;;;;16.24;100.00;96447.59;29395;257;63005;-54
2023/07/29 01:51:04;;;;;;;0.40;0.40;;;;;;;16.27;100.00;96457.87;29395;355;63009;-54
2023/07/29 01:51:36;;;;;;;0.40;0.40;;;;;;;16.30;100.00;96452.50;29395;242;63010;-54
2023/07/29 01:52:08;;;;;;;0.40;0.40;;;;;;;16.31;100.00;96447.81;29395;232;63009;-54
2023/07/29 01:52:39;;;;;;;0.40;0.40;;;;;;;16.32;100.00;96449.44;29394;248;64009;-55
2023/07/29 01:53:10;;;;;;;0.40;0.40;;;;;;;16.33;100.00;96456.50;29395;209;63009;-55
2023/07/29 01:53:41;;;;;;;0.40;0.40;;;;;;;16.33;100.00;96445.53;29395;251;63009;-53
2023/07/29 01:54:13;;;;;;;0.40;0.40;;;;;;;16.29;100.00;96439.16;29395;288;63027;-54
2023/07/29 01:54:44;;;;;;;0.40;0.40;;;;;;;16.39;100.00;96449.66;29395;239;63004;-55
2023/07/29 01:55:16;;;;;;;0.40;0.40;;;;;;;16.41;100.00;96448.19;29395;266;63004;-54
2023/07/29 01:55:48;;;;;;;0.40;0.40;;;;;;;16.41;100.00;96447.38;29394;236;64008;-54
2023/07/29 01:56:19;;;;;;;0.40;0.40;;;;;;;16.42;100.00;96446.25;29395;300;63009;-59
2023/07/29 01:56:51;;;;;;;0.37;0.37;;;;;;;16.43;100.00;96447.84;29394;301;64009;-54
2023/07/29 01:57:22;;;;;;;0.40;0.40;;;;;;;16.43;100.00;96450.59;29395;333;63009;-54
2023/07/29 01:57:54;;;;;;;0.40;0.40;;;;;;;16.47;100.00;96445.22;29395;228;63005;-54
2023/07/29 01:58:25;;;;;;;0.40;0.40;;;;;;;16.47;100.00;96445.22;29395;205;63009;-54
2023/07/29 01:58:56;;;;;;;0.40;0.40;;;;;;;16.48;100.00;96446.81;29395;234;63005;-54
2023/07/29 01:59:28;;;;;;;0.40;0.40;;;;;;;16.48;100.00;96442.16;29394;226;64013;-54
2023/07/29 02:00:00;;;;;;;0.40;0.40;;;;;;;16.48;100.00;96444.88;29395;264;63005;-54
2023/07/29 02:00:31;;;;;;;0.40;0.40;;;;;;;16.49;100.00;96443.75;29395;197;63009;-53
2023/07/29 02:01:02;;;;;;;0.40;0.40;;;;;;;16.52;100.00;96443.06;29395;276;63004;-55
2023/07/29 02:01:33;;;;;;;0.40;0.40;;;;;;;16.53;100.00;96436.47;29395;220;63009;-54
2023/07/29 02:02:05;;;;;;;0.40;0.40;;;;;;;16.54;100.00;96443.53;29395;233;63007;-54
2023/07/29 02:02:36;;;;;;;0.40;0.40;;;;;;;16.55;100.00;96436.91;29395;278;63009;-55
2023/07/29 02:03:07;;;;;;;0.40;0.40;;;;;;;16.55;100.00;96436.13;29395;237;63004;-54
2023/07/29 02:03:39;;;;;;;0.40;0.40;;;;;;;16.55;100.00;96436.91;29394;204;64006;-55
2023/07/29 02:04:10;;;;;;;0.40;0.40;;;;;;;16.54;100.00;96435.31;29395;221;63005;-54
2023/07/29 02:04:41;;;;;;;0.50;0.50;;;;;;;16.52;100.00;96437.59;29395;214;63009;-54
2023/07/29 02:05:15;;;;;;;0.40;0.40;;;;;;;16.49;100.00;96435.53;29395;258;63005;-54
2023/07/29 02:05:50;;;;;;;0.40;0.40;;;;;;;16.47;100.00;96429.59;29395;287;63009;-54
2023/07/29 02:06:22;;;;;;;0.40;0.40;;;;;;;16.46;100.00;96438.97;29395;402;63005;-54
2023/07/29 02:06:53;;;;;;;0.40;0.40;;;;;;;16.45;100.00;96437.34;29395;246;63009;-54
2023/07/29 02:07:26;;;;;;;0.40;0.40;;;;;;;16.38;100.00;96423.44;29395;205;63016;-54
2023/07/29 02:07:57;;;;;;;0.40;0.40;;;;;;;16.42;100.00;96435.28;29395;253;63009;-56
2023/07/29 02:08:29;;;;;;;0.40;0.40;;;;;;;16.40;100.00;96435.63;29395;212;63004;-55
2023/07/29 02:09:00;;;;;;;0.40;0.40;;;;;;;16.41;100.00;96428.22;29394;253;64013;-55
2023/07/29 02:09:31;;;;;;;0.40;0.40;;;;;;;16.40;100.00;96437.56;29395;265;63004;-55
2023/07/29 02:10:04;;;;;;;0.50;0.50;;;;;;;16.39;100.00;96428.56;29395;293;63009;-54
2023/07/29 02:10:35;;;;;;;0.40;0.40;;;;;;;16.40;100.00;96426.63;29395;230;63004;-54
2023/07/29 02:11:06;;;;;;;0.50;0.50;;;;;;;16.40;100.00;96430.16;29395;342;63008;-54
2023/07/29 02:11:37;;;;;;;1.12;0.73;;;;;;;16.43;100.00;96434.16;29394;288;64009;-54
2023/07/29 02:12:08;;;;;;;0.40;0.40;;;;;;;16.45;100.00;96431.88;29395;252;63009;-54
2023/07/29 02:12:40;;;;;;;0.40;0.40;;;;;;;16.46;100.00;96428.00;29394;257;64009;-54
2023/07/29 02:13:12;;;;;;;0.40;0.40;;;;;;;16.49;100.00;96421.03;29395;233;63014;-55
2023/07/29 02:13:43;;;;;;;0.40;0.40;;;;;;;16.48;100.00;96428.47;29395;224;63000;-55
2023/07/29 02:14:15;;;;;;;0.40;0.40;;;;;;;16.50;100.00;96420.69;29395;228;63015;-54
2023/07/29 02:14:47;;;;;;;0.40;0.40;;;;;;;16.50;100.00;96428.91;29395;212;63005;-54
2023/07/29 02:15:18;;;;;;;0.40;0.40;;;;;;;16.49;100.00;96427.31;29395;280;63009;-54
2023/07/29 02:15:50;;;;;;;0.37;0.37;;;;;;;16.46;100.00;96422.53;29395;306;63004;-54
2023/07/29 02:16:22;;;;;;;0.40;0.40;;;;;;;16.46;100.00;96422.53;29395;243;63009;-56
2023/07/29 02:16:54;;;;;;;0.40;0.40;;;;;;;16.44;100.00;96419.31;29394;243;64009;-54
2023/07/29 02:17:26;;;;;;;0.40;0.40;;;;;;;16.41;100.00;96422.75;29395;196;63009;-54
2023/07/29 02:17:59;;;;;;;0.40;0.40;;;;;;;16.41;100.00;96426.28;29395;290;63004;-54
2023/07/29 02:18:30;;;;;;;0.50;0.50;;;;;;;16.45;100.00;96420.13;29395;209;63008;-55
2023/07/29 02:19:01;;;;;;;0.40;0.40;;;;;;;16.44;100.00;96422.06;29395;239;63005;-54
2023/07/29 02:19:33;;;;;;;0.43;0.43;;;;;;;16.43;100.00;96417.72;29394;240;64014;-54
2023/07/29 02:20:05;;;;;;;0.40;0.40;;;;;;;16.43;100.00;96418.53;29395;262;63005;-54
2023/07/29 02:20:37;;;;;;;0.40;0.40;;;;;;;16.43;100.00;96423.22;29395;263;63027;-54
2023/07/29 02:21:08;;;;;;;0.40;0.40;;;;;;;16.44;100.00;96416.59;29395;196;63005;-54
2023/07/29 02:21:40;;;;;;;0.40;0.40;;;;;;;16.43;100.00;96420.47;29395;234;63009;-55
2023/07/29 02:22:14;;;;;;;0.40;0.40;;;;;;;16.45;100.00;96417.38;29395;247;63005;-56
2023/07/29 02:22:46;;;;;;;0.40;0.40;;;;;;;16.41;100.00;96412.59;29395;270;63009;-54
2023/07/29 02:23:17;;;;;;;0.37;0.37;;;;;;;16.42;100.00;96418.87;29395;224;63015;-58
2023/07/29 02:23:48;;;;;;;0.40;0.40;;;;;;;16.39;100.00;96425.03;29395;244;63009;-56
2023/07/29 02:24:19;;;;;;;0.40;0.40;;;;;;;16.40;100.00;96421.16;29395;248;63004;-55
2023/07/29 02:24:51;;;;;;;0.40;0.40;;;;;;;16.39;100.00;96422.28;29394;261;64013;-55
2023/07/29 02:25:22;;;;;;;0.40;0.40;;;;;;;16.37;100.00;96413.63;29395;226;63011;-54
2023/07/29 02:25:53;;;;;;;0.40;0.40;;;;;;;16.33;100.00;96420.91;29395;226;63004;-54
2023/07/29 02:26:24;;;;;;;0.40;0.40;;;;;;;16.32;100.00;96422.03;29395;364;63005;-55
2023/07/29 02:26:56;;;;;;;0.40;0.40;;;;;;;16.36;100.00;96417.50;29394;221;64003;-55
2023/07/29 02:27:27;;;;;;;0.40;0.40;;;;;;;16.38;100.00;96420.69;29395;308;63005;-55
2023/07/29 02:27:59;;;;;;;0.40;0.40;;;;;;;16.38;100.00;96420.69;29395;277;63027;-56
2023/07/29 02:28:33;;;;;;;0.40;0.40;;;;;;;16.36;100.00;96422.97;29395;274;63005;-55
2023/07/29 02:29:05;;;;;;;0.40;0.40;;;;;;;16.37;100.00;96414.41;29395;237;63009;-54
2023/07/29 02:29:37;;;;;;;0.40;0.40;;;;;;;16.38;100.00;96420.69;29395;236;63005;-55
2023/07/29 02:30:12;;;;;;;0.30;0.30;;;;;;;16.41;100.00;96409.84;29394;200;64013;-54
2023/07/29 02:30:44;;;;;;;0.40;0.40;;;;;;;16.47;100.00;96415.09;29395;198;63004;-55
2023/07/29 02:31:21;;;;;;;0.40;0.40;;;;;;;16.47;100.00;96413.16;29395;242;63009;-55
2023/07/29 02:31:53;;;;;;;0.40;0.40;;;;;;;16.46;100.00;96410.78;29395;238;63004;-55
2023/07/29 02:32:24;;;;;;;0.40;0.40;;;;;;;16.44;100.00;96419.31;29395;236;63009;-55
2023/07/29 02:32:55;;;;;;;0.40;0.40;;;;;;;16.38;100.00;96401.53;29395;224;63004;-55
2023/07/29 02:33:26;;;;;;;0.40;0.40;;;;;;;16.44;100.00;96416.59;29395;202;63008;-54
2023/07/29 02:33:58;;;;;;;0.40;0.40;;;;;;;16.46;100.00;96417.03;29394;210;64009;-55
2023/07/29 02:34:30;;;;;;;0.40;0.40;;;;;;;16.42;100.00;96416.94;29395;214;63009;-55
2023/07/29 02:35:02;;;;;;;0.40;0.40;;;;;;;16.40;100.00;96419.22;29395;225;63005;-55
2023/07/29 02:35:33;;;;;;;0.30;0.30;;;;;;;16.40;100.00;96415.66;29395;287;63009;-55
2023/07/29 02:36:05;;;;;;;1.85;1.75;;;;;;;16.39;100.00;96419.56;29395;202;63005;-54
2023/07/29 02:36:36;;;;;;;0.40;0.40;;;;;;;16.41;100.00;96425.47;29394;218;64005;-55
2023/07/29 02:37:07;;;;;;;0.40;0.40;;;;;;;16.38;100.00;96420.69;29394;230;64005;-55
2023/07/29 02:37:38;;;;;;;0.40;0.40;;;;;;;16.39;100.00;96425.03;29395;264;63009;-54
2023/07/29 02:38:10;;;;;;;0.40;0.40;;;;;;;16.36;100.00;96421.03;29395;214;63016;-54
2023/07/29 02:38:42;;;;;;;0.40;0.40;;;;;;;16.34;100.00;96427.97;29395;249;63009;-54